Diana, TX (75640)

7:11 PM CST on February 27, 2017 (GMT -0600)
Gilmer | | Change Station

Elev 0 ft 32.70 °N, 94.89 °W | Updated 4 minutes ago

Overcast
Overcast
68.9 °F
Feels Like 68.9 °F
N
3.7
Wind Variable Wind from SE
Gusts 6.2 mph

Today
High -- | Low -- °F
--% Chance of Precip.
Yesterday
High -- | Low -- °F
Precip. -- in
Pressure 29.91 in
Visibility 10.0 miles
Clouds Scattered Clouds 2100 ft
Mostly Cloudy 6000 ft
Overcast 8000 ft
Dew Point 66 °F
Humidity 89%
Rainfall 0.02 in
Snow Depth Not available.
6:48 AM 6:14 PM
New Moon, 3% visible
METAR KJXI 280055Z AUTO 02003KT 10SM SCT021 BKN060 OVC080 20/18 A2991 RMK AO2 T01960178
Pressure 29.91 in
Visibility 10.0 miles
Clouds Scattered Clouds 2100 ft
Mostly Cloudy 6000 ft
Overcast 8000 ft
Dew Point 66 °F
Humidity 89%
Rainfall 0.02 in
Snow Depth Not available.
6:48 AM 6:14 PM
New Moon, 3% visible
METAR KJXI 280055Z AUTO 02003KT 10SM SCT021 BKN060 OVC080 20/18 A2991 RMK AO2 T01960178

Get Your Daily Forecast Email!

Thanks for signing up!

Be on the lookout for a verification email in your inbox.

You'll start receiving the daily forecast at 8 AM.

×

10-Day Weather Forecast

Almanac

Astronomy

Feb. 27, 2017 Rise Set
Actual Time
Civil Twilight
Nautical Twilight
Astronomical Twilight
Moon
Length of Visible Light
Length of Day
Tomorrow will be .
, % of the Moon is Illuminated

Today's Extremes

State Highs State Lows

Community

WunderPhotos

Upload Photos

1,962,540 photos uploaded!

WunderBlog® & News

Nearby

Air Quality

  Air Quality AQ Index Pollutant
Not available.

Snow Depth

Station Depth Elevation

Earthquake Activity

City Distance Mag. Time & Date
Minimum magnitude displayed is 2.5.

Coastal Water Temperatures

Place Temperature

Stations

Nearby Weather Stations

Station Location Temp. Windchill Dew Point Humidity Wind Precip. Elev Updated Type
                   

Watches & Warnings

There are currently no watches in effect.